sensor_id;sensor_type;location;lat;lon;timestamp;pressure;altitude;pressure_sealevel;temperature;humidity
70011;BME280;59543;37.950;-122.338;2023-11-19T00:00:58;76820.88;;;-145.45;78.07
70011;BME280;59543;37.950;-122.338;2023-11-19T00:03:24;76814.69;;;-145.45;78.07
70011;BME280;59543;37.950;-122.338;2023-11-19T00:05:50;76800.31;;;-145.45;78.35
70011;BME280;59543;37.950;-122.338;2023-11-19T00:08:16;76802.38;;;-145.45;78.58
70011;BME280;59543;37.950;-122.338;2023-11-19T00:10:42;76808.53;;;-145.45;78.48
70011;BME280;59543;37.950;-122.338;2023-11-19T00:13:09;76822.91;;;-145.45;78.71
70011;BME280;59543;37.950;-122.338;2023-11-19T00:15:36;76820.88;;;-145.45;78.53
70011;BME280;59543;37.950;-122.338;2023-11-19T00:18:02;76833.19;;;-145.45;78.69
70011;BME280;59543;37.950;-122.338;2023-11-19T00:20:31;76843.44;;;-145.45;78.58
70011;BME280;59543;37.950;-122.338;2023-11-19T00:22:58;76833.19;;;-145.45;78.85
70011;BME280;59543;37.950;-122.338;2023-11-19T00:25:24;76837.28;;;-145.45;78.64
70011;BME280;59543;37.950;-122.338;2023-11-19T00:27:51;76847.56;;;-145.45;78.53
70011;BME280;59543;37.950;-122.338;2023-11-19T00:30:19;76857.84;;;-145.45;78.69
70011;BME280;59543;37.950;-122.338;2023-11-19T00:32:45;76870.16;;;-145.45;78.84
70011;BME280;59543;37.950;-122.338;2023-11-19T00:35:12;76861.94;;;-145.45;78.72
70011;BME280;59543;37.950;-122.338;2023-11-19T00:37:41;76876.31;;;-145.45;78.92
70011;BME280;59543;37.950;-122.338;2023-11-19T00:40:08;76874.25;;;-145.45;78.95
70011;BME280;59543;37.950;-122.338;2023-11-19T00:42:36;76890.69;;;-145.45;79.17
70011;BME280;59543;37.950;-122.338;2023-11-19T00:45:03;76886.59;;;-145.45;79.02
70011;BME280;59543;37.950;-122.338;2023-11-19T00:47:34;76894.81;;;-145.45;79.02
70011;BME280;59543;37.950;-122.338;2023-11-19T00:50:02;76909.19;;;-145.45;79.26
70011;BME280;59543;37.950;-122.338;2023-11-19T00:52:28;76913.28;;;-145.45;79.48
70011;BME280;59543;37.950;-122.338;2023-11-19T00:54:54;76927.66;;;-145.45;79.72
70011;BME280;59543;37.950;-122.338;2023-11-19T00:57:20;76931.78;;;-145.45;80.04
70011;BME280;59543;37.950;-122.338;2023-11-19T00:59:46;76946.16;;;-145.45;80.46
70011;BME280;59543;37.950;-122.338;2023-11-19T01:02:13;76944.09;;;-145.45;80.65
70011;BME280;59543;37.950;-122.338;2023-11-19T01:04:40;76933.84;;;-145.45;80.23
70011;BME280;59543;37.950;-122.338;2023-11-19T01:07:06;76931.78;;;-145.45;80.66
70011;BME280;59543;37.950;-122.338;2023-11-19T01:09:33;76929.72;;;-145.45;80.10
70011;BME280;59543;37.950;-122.338;2023-11-19T01:12:01;76927.66;;;-145.45;79.54
70011;BME280;59543;37.950;-122.338;2023-11-19T01:14:28;76937.94;;;-145.45;79.67
70011;BME280;59543;37.950;-122.338;2023-11-19T01:16:55;76942.06;;;-145.45;79.55
70011;BME280;59543;37.950;-122.338;2023-11-19T01:19:21;76935.88;;;-145.45;79.83
70011;BME280;59543;37.950;-122.338;2023-11-19T01:21:49;76942.06;;;-145.45;79.96
70011;BME280;59543;37.950;-122.338;2023-11-19T01:24:15;76944.09;;;-145.45;79.79
70011;BME280;59543;37.950;-122.338;2023-11-19T01:26:43;76948.22;;;-145.45;79.68
70011;BME280;59543;37.950;-122.338;2023-11-19T01:29:13;76958.47;;;-145.45;79.74
70011;BME280;59543;37.950;-122.338;2023-11-19T01:31:40;76956.44;;;-145.45;79.64
70011;BME280;59543;37.950;-122.338;2023-11-19T01:34:07;76964.66;;;-145.45;79.64
70011;BME280;59543;37.950;-122.338;2023-11-19T01:36:34;76985.19;;;-145.45;80.05
70011;BME280;59543;37.950;-122.338;2023-11-19T01:39:00;76976.97;;;-145.45;80.63
70011;BME280;59543;37.950;-122.338;2023-11-19T01:41:26;76987.25;;;-145.45;80.52
70011;BME280;59543;37.950;-122.338;2023-11-19T01:43:53;76964.66;;;-145.45;80.37
70011;BME280;59543;37.950;-122.338;2023-11-19T01:46:20;76958.47;;;-145.45;79.90
70011;BME280;59543;37.950;-122.338;2023-11-19T01:48:46;76956.44;;;-145.45;79.97
70011;BME280;59543;37.950;-122.338;2023-11-19T01:51:13;76958.47;;;-145.45;79.90
70011;BME280;59543;37.950;-122.338;2023-11-19T01:53:43;76979.03;;;-145.45;80.19
70011;BME280;59543;37.950;-122.338;2023-11-19T01:56:12;76981.09;;;-145.45;80.31
70011;BME280;59543;37.950;-122.338;2023-11-19T01:58:40;76983.13;;;-145.45;80.13
70011;BME280;59543;37.950;-122.338;2023-11-19T02:01:08;76989.31;;;-145.45;80.05
70011;BME280;59543;37.950;-122.338;2023-11-19T02:03:35;76989.31;;;-145.45;80.35
70011;BME280;59543;37.950;-122.338;2023-11-19T02:06:02;76987.25;;;-145.45;80.10
70011;BME280;59543;37.950;-122.338;2023-11-19T02:08:29;77001.63;;;-145.45;80.20
70011;BME280;59543;37.950;-122.338;2023-11-19T02:10:56;76999.56;;;-145.45;80.36
70011;BME280;59543;37.950;-122.338;2023-11-19T02:13:24;77011.91;;;-145.45;79.97
70011;BME280;59543;37.950;-122.338;2023-11-19T02:15:51;77036.53;;;-145.45;80.12
70011;BME280;59543;37.950;-122.338;2023-11-19T02:20:45;77050.94;;;-145.45;80.06
70011;BME280;59543;37.950;-122.338;2023-11-19T02:23:13;77081.72;;;-145.45;81.26
70011;BME280;59543;37.950;-122.338;2023-11-19T02:25:40;77077.63;;;-145.45;80.89
70011;BME280;59543;37.950;-122.338;2023-11-19T02:28:07;77073.53;;;-145.45;80.57
70011;BME280;59543;37.950;-122.338;2023-11-19T02:30:33;77071.47;;;-145.45;80.89
70011;BME280;59543;37.950;-122.338;2023-11-19T02:33:00;77069.41;;;-145.45;81.05
70011;BME280;59543;37.950;-122.338;2023-11-19T02:35:31;77079.69;;;-145.45;80.91
70011;BME280;59543;37.950;-122.338;2023-11-19T02:37:58;77087.91;;;-145.45;80.88
70011;BME280;59543;37.950;-122.338;2023-11-19T02:40:29;77077.63;;;-145.45;80.91
70011;BME280;59543;37.950;-122.338;2023-11-19T02:42:56;77067.34;;;-145.45;80.90
70011;BME280;59543;37.950;-122.338;2023-11-19T02:45:25;77077.63;;;-145.45;80.72
70011;BME280;59543;37.950;-122.338;2023-11-19T02:47:52;77071.47;;;-145.45;80.71
70011;BME280;59543;37.950;-122.338;2023-11-19T02:50:21;77067.34;;;-145.45;80.35
70011;BME280;59543;37.950;-122.338;2023-11-19T02:52:54;77067.34;;;-145.45;80.15
70011;BME280;59543;37.950;-122.338;2023-11-19T02:55:22;77085.84;;;-145.45;80.62
70011;BME280;59543;37.950;-122.338;2023-11-19T02:57:50;77087.91;;;-145.45;80.85
70011;BME280;59543;37.950;-122.338;2023-11-19T03:00:19;77087.91;;;-145.45;80.83
70011;BME280;59543;37.950;-122.338;2023-11-19T03:02:50;77092.00;;;-145.45;80.07
70011;BME280;59543;37.950;-122.338;2023-11-19T03:05:31;77083.78;;;-145.45;79.28
70011;BME280;59543;37.950;-122.338;2023-11-19T03:07:57;77079.69;;;-145.45;79.38
70011;BME280;59543;37.950;-122.338;2023-11-19T03:10:23;77085.84;;;-145.45;79.45
70011;BME280;59543;37.950;-122.338;2023-11-19T03:12:50;77096.13;;;-145.45;79.98
70011;BME280;59543;37.950;-122.338;2023-11-19T03:15:16;77102.28;;;-145.45;80.00
70011;BME280;59543;37.950;-122.338;2023-11-19T03:17:43;77098.16;;;-145.45;79.38
70011;BME280;59543;37.950;-122.338;2023-11-19T03:20:10;77116.66;;;-145.45;79.78
70011;BME280;59543;37.950;-122.338;2023-11-19T03:22:43;77128.97;;;-145.45;80.20
70011;BME280;59543;37.950;-122.338;2023-11-19T03:25:12;77112.56;;;-145.45;80.38
70011;BME280;59543;37.950;-122.338;2023-11-19T03:27:39;77126.94;;;-145.45;80.59
70011;BME280;59543;37.950;-122.338;2023-11-19T03:30:08;77159.78;;;-145.45;80.88
70011;BME280;59543;37.950;-122.338;2023-11-19T03:32:38;77182.41;;;-145.45;81.92
70011;BME280;59543;37.950;-122.338;2023-11-19T03:35:05;77192.66;;;-145.45;82.14
70011;BME280;59543;37.950;-122.338;2023-11-19T03:37:35;77196.78;;;-145.45;82.45
70011;BME280;59543;37.950;-122.338;2023-11-19T03:40:02;77190.59;;;-145.45;82.06
70011;BME280;59543;37.950;-122.338;2023-11-19T03:42:29;77202.94;;;-145.45;81.11
70011;BME280;59543;37.950;-122.338;2023-11-19T03:44:56;77192.66;;;-145.45;79.18
70011;BME280;59543;37.950;-122.338;2023-11-19T03:47:22;77196.78;;;-145.45;78.69
70011;BME280;59543;37.950;-122.338;2023-11-19T03:49:49;77184.44;;;-145.45;77.49
70011;BME280;59543;37.950;-122.338;2023-11-19T03:52:19;77198.81;;;-145.45;76.45
70011;BME280;59543;37.950;-122.338;2023-11-19T03:54:45;77209.09;;;-145.45;75.20
70011;BME280;59543;37.950;-122.338;2023-11-19T03:57:12;77211.16;;;-145.45;75.78
70011;BME280;59543;37.950;-122.338;2023-11-19T03:59:39;77235.81;;;-145.45;76.01
70011;BME280;59543;37.950;-122.338;2023-11-19T04:02:06;77250.19;;;-145.45;75.35
70011;BME280;59543;37.950;-122.338;2023-11-19T04:04:32;77254.28;;;-145.45;74.48
70011;BME280;59543;37.950;-122.338;2023-11-19T04:07:00;77258.41;;;-145.45;73.27
70011;BME280;59543;37.950;-122.338;2023-11-19T04:09:27;77258.41;;;-145.45;74.00
70011;BME280;59543;37.950;-122.338;2023-11-19T04:11:53;77258.41;;;-145.45;73.70
70011;BME280;59543;37.950;-122.338;2023-11-19T04:14:19;77256.34;;;-145.45;74.52
70011;BME280;59543;37.950;-122.338;2023-11-19T04:16:45;77264.56;;;-145.45;75.45
70011;BME280;59543;37.950;-122.338;2023-11-19T04:19:12;77248.13;;;-145.45;74.53
70011;BME280;59543;37.950;-122.338;2023-11-19T04:21:42;77268.66;;;-145.45;73.11
70011;BME280;59543;37.950;-122.338;2023-11-19T04:24:11;77289.22;;;-145.45;73.88
70011;BME280;59543;37.950;-122.338;2023-11-19T04:26:45;77313.88;;;-145.45;74.87
70011;BME280;59543;37.950;-122.338;2023-11-19T04:29:16;77346.75;;;-145.45;75.40
70011;BME280;59543;37.950;-122.338;2023-11-19T04:31:43;77383.72;;;-145.45;73.88
70011;BME280;59543;37.950;-122.338;2023-11-19T04:34:10;77437.13;;;-145.45;71.78
70011;BME280;59543;37.950;-122.338;2023-11-19T04:36:37;77453.56;;;-145.45;71.83
70011;BME280;59543;37.950;-122.338;2023-11-19T04:39:03;77472.06;;;-145.45;71.99
70011;BME280;59543;37.950;-122.338;2023-11-19T04:41:50;77496.72;;;-145.45;71.19
70011;BME280;59543;37.950;-122.338;2023-11-19T04:44:18;77515.19;;;-145.45;72.08
70011;BME280;59543;37.950;-122.338;2023-11-19T04:46:45;77543.97;;;-145.45;71.38
70011;BME280;59543;37.950;-122.338;2023-11-19T04:49:12;77543.97;;;-145.45;70.89
70011;BME280;59543;37.950;-122.338;2023-11-19T04:51:44;77558.34;;;-145.45;70.46
70011;BME280;59543;37.950;-122.338;2023-11-19T04:54:12;77568.59;;;-145.45;70.93
70011;BME280;59543;37.950;-122.338;2023-11-19T04:56:40;77572.72;;;-145.45;69.43
70011;BME280;59543;37.950;-122.338;2023-11-19T04:59:06;77576.81;;;-145.45;70.20
70011;BME280;59543;37.950;-122.338;2023-11-19T05:01:33;77574.78;;;-145.45;70.03
70011;BME280;59543;37.950;-122.338;2023-11-19T05:03:59;77572.72;;;-145.45;70.38
70011;BME280;59543;37.950;-122.338;2023-11-19T05:06:30;77593.25;;;-145.45;67.49
70011;BME280;59543;37.950;-122.338;2023-11-19T05:08:58;77599.44;;;-145.45;67.17
70011;BME280;59543;37.950;-122.338;2023-11-19T05:11:26;77609.69;;;-145.45;68.19
70011;BME280;59543;37.950;-122.338;2023-11-19T05:13:54;77626.13;;;-145.45;67.28
70011;BME280;59543;37.950;-122.338;2023-11-19T05:16:20;77630.25;;;-145.45;68.76
70011;BME280;59543;37.950;-122.338;2023-11-19T05:18:47;77630.25;;;-145.45;68.85
70011;BME280;59543;37.950;-122.338;2023-11-19T05:21:13;77632.31;;;-145.45;68.27
70011;BME280;59543;37.950;-122.338;2023-11-19T05:23:40;77646.69;;;-145.45;68.09
70011;BME280;59543;37.950;-122.338;2023-11-19T05:26:07;77650.78;;;-145.45;67.37
70011;BME280;59543;37.950;-122.338;2023-11-19T05:28:34;77656.94;;;-145.45;66.80
70011;BME280;59543;37.950;-122.338;2023-11-19T05:31:00;77661.06;;;-145.45;66.44
70011;BME280;59543;37.950;-122.338;2023-11-19T05:33:26;77677.50;;;-145.45;65.05
70011;BME280;59543;37.950;-122.338;2023-11-19T05:35:52;77693.94;;;-145.45;64.01
70011;BME280;59543;37.950;-122.338;2023-11-19T05:38:19;77708.31;;;-145.45;64.18
70011;BME280;59543;37.950;-122.338;2023-11-19T05:40:46;77716.53;;;-145.45;64.29
70011;BME280;59543;37.950;-122.338;2023-11-19T05:43:14;77728.84;;;-145.45;64.11
70011;BME280;59543;37.950;-122.338;2023-11-19T05:45:42;77737.06;;;-145.45;64.40
70011;BME280;59543;37.950;-122.338;2023-11-19T05:48:09;77741.19;;;-145.45;64.45
70011;BME280;59543;37.950;-122.338;2023-11-19T05:50:36;77741.19;;;-145.45;63.50
70011;BME280;59543;37.950;-122.338;2023-11-19T05:53:02;77759.69;;;-145.45;64.28
70011;BME280;59543;37.950;-122.338;2023-11-19T05:55:33;77765.84;;;-145.45;65.21
70011;BME280;59543;37.950;-122.338;2023-11-19T05:58:00;77788.44;;;-145.45;65.16
70011;BME280;59543;37.950;-122.338;2023-11-19T06:00:26;77774.06;;;-145.45;65.50
70011;BME280;59543;37.950;-122.338;2023-11-19T06:02:53;77763.78;;;-145.45;65.17
70011;BME280;59543;37.950;-122.338;2023-11-19T06:05:19;77761.72;;;-145.45;64.28
70011;BME280;59543;37.950;-122.338;2023-11-19T06:07:45;77782.28;;;-145.45;65.69
70011;BME280;59543;37.950;-122.338;2023-11-19T06:10:12;77782.28;;;-145.45;65.21
70011;BME280;59543;37.950;-122.338;2023-11-19T06:12:39;77788.44;;;-145.45;65.67
70011;BME280;59543;37.950;-122.338;2023-11-19T06:15:07;77811.03;;;-145.45;65.59
70011;BME280;59543;37.950;-122.338;2023-11-19T06:17:34;77804.88;;;-145.45;65.29
70011;BME280;59543;37.950;-122.338;2023-11-19T06:20:00;77815.16;;;-145.45;64.53
70011;BME280;59543;37.950;-122.338;2023-11-19T06:22:27;77802.81;;;-145.45;64.29
70011;BME280;59543;37.950;-122.338;2023-11-19T06:24:53;77821.31;;;-145.45;64.95
70011;BME280;59543;37.950;-122.338;2023-11-19T06:27:19;77823.38;;;-145.45;63.72
70011;BME280;59543;37.950;-122.338;2023-11-19T06:29:45;77831.59;;;-145.45;64.21
70011;BME280;59543;37.950;-122.338;2023-11-19T06:32:11;77835.69;;;-145.45;64.45
70011;BME280;59543;37.950;-122.338;2023-11-19T06:34:38;77843.91;;;-145.45;64.17
70011;BME280;59543;37.950;-122.338;2023-11-19T06:37:04;77835.69;;;-145.45;64.02
70011;BME280;59543;37.950;-122.338;2023-11-19T06:39:30;77839.81;;;-145.45;64.51
70011;BME280;59543;37.950;-122.338;2023-11-19T06:41:56;77843.91;;;-145.45;62.97
70011;BME280;59543;37.950;-122.338;2023-11-19T06:44:23;77868.56;;;-145.45;63.43
70011;BME280;59543;37.950;-122.338;2023-11-19T06:46:50;77891.16;;;-145.45;64.08
70011;BME280;59543;37.950;-122.338;2023-11-19T06:49:16;77889.13;;;-145.45;63.85
70011;BME280;59543;37.950;-122.338;2023-11-19T06:51:43;77897.34;;;-145.45;63.44
70011;BME280;59543;37.950;-122.338;2023-11-19T06:54:10;77895.28;;;-145.45;63.72
70011;BME280;59543;37.950;-122.338;2023-11-19T06:56:36;77887.06;;;-145.45;62.71
70011;BME280;59543;37.950;-122.338;2023-11-19T06:59:02;77897.34;;;-145.45;63.19
70011;BME280;59543;37.950;-122.338;2023-11-19T07:01:34;77901.44;;;-145.45;63.27
70011;BME280;59543;37.950;-122.338;2023-11-19T07:04:02;77899.38;;;-145.45;63.14
70011;BME280;59543;37.950;-122.338;2023-11-19T07:06:34;77915.81;;;-145.45;63.34
70011;BME280;59543;37.950;-122.338;2023-11-19T07:09:02;77909.66;;;-145.45;63.54
70011;BME280;59543;37.950;-122.338;2023-11-19T07:11:41;77913.78;;;-145.45;62.76
70011;BME280;59543;37.950;-122.338;2023-11-19T07:14:08;77911.72;;;-145.45;62.38
70011;BME280;59543;37.950;-122.338;2023-11-19T07:16:35;77926.09;;;-145.45;62.27
70011;BME280;59543;37.950;-122.338;2023-11-19T07:19:05;77926.09;;;-145.45;62.29
70011;BME280;59543;37.950;-122.338;2023-11-19T07:21:32;77936.38;;;-145.45;63.06
70011;BME280;59543;37.950;-122.338;2023-11-19T07:24:03;77938.44;;;-145.45;61.96
70011;BME280;59543;37.950;-122.338;2023-11-19T07:26:30;77934.31;;;-145.45;62.37
70011;BME280;59543;37.950;-122.338;2023-11-19T07:28:56;77950.75;;;-145.45;62.15
70011;BME280;59543;37.950;-122.338;2023-11-19T07:31:24;77963.09;;;-145.45;63.45
70011;BME280;59543;37.950;-122.338;2023-11-19T07:33:50;77969.25;;;-145.45;61.35
70011;BME280;59543;37.950;-122.338;2023-11-19T07:36:16;77954.88;;;-145.45;60.66
70011;BME280;59543;37.950;-122.338;2023-11-19T07:38:42;77987.75;;;-145.45;61.04
70011;BME280;59543;37.950;-122.338;2023-11-19T07:41:09;77983.63;;;-145.45;60.17
70011;BME280;59543;37.950;-122.338;2023-11-19T07:43:39;77969.25;;;-145.45;59.29
70011;BME280;59543;37.950;-122.338;2023-11-19T07:46:15;77975.41;;;-145.45;59.62
70011;BME280;59543;37.950;-122.338;2023-11-19T07:48:41;77969.25;;;-145.45;58.93
70011;BME280;59543;37.950;-122.338;2023-11-19T07:51:08;77991.84;;;-145.45;59.71
70011;BME280;59543;37.950;-122.338;2023-11-19T07:53:34;77991.84;;;-145.45;59.83
70011;BME280;59543;37.950;-122.338;2023-11-19T07:56:01;77998.00;;;-145.45;60.43
70011;BME280;59543;37.950;-122.338;2023-11-19T07:58:27;78008.28;;;-145.45;60.44
70011;BME280;59543;37.950;-122.338;2023-11-19T08:00:53;78012.41;;;-145.45;60.75
70011;BME280;59543;37.950;-122.338;2023-11-19T08:03:20;78024.72;;;-145.45;61.59
70011;BME280;59543;37.950;-122.338;2023-11-19T08:05:48;78022.66;;;-145.45;60.90
70011;BME280;59543;37.950;-122.338;2023-11-19T08:08:14;78020.63;;;-145.45;61.74
70011;BME280;59543;37.950;-122.338;2023-11-19T08:10:40;78024.72;;;-145.45;61.39
70011;BME280;59543;37.950;-122.338;2023-11-19T08:13:07;78041.16;;;-145.45;62.26
70011;BME280;59543;37.950;-122.338;2023-11-19T08:15:33;78047.31;;;-145.45;62.28
70011;BME280;59543;37.950;-122.338;2023-11-19T08:17:59;78045.28;;;-145.45;62.06
70011;BME280;59543;37.950;-122.338;2023-11-19T08:20:26;78059.66;;;-145.45;62.57
70011;BME280;59543;37.950;-122.338;2023-11-19T08:22:52;78067.88;;;-145.45;62.51
70011;BME280;59543;37.950;-122.338;2023-11-19T08:25:18;78053.50;;;-145.45;61.88
70011;BME280;59543;37.950;-122.338;2023-11-19T08:27:44;78076.09;;;-145.45;62.12
70011;BME280;59543;37.950;-122.338;2023-11-19T08:30:12;78096.63;;;-145.45;63.06
70011;BME280;59543;37.950;-122.338;2023-11-19T08:32:39;78106.91;;;-145.45;63.22
70011;BME280;59543;37.950;-122.338;2023-11-19T08:35:05;78115.13;;;-145.45;63.56
70011;BME280;59543;37.950;-122.338;2023-11-19T08:37:31;78127.47;;;-145.45;64.38
70011;BME280;59543;37.950;-122.338;2023-11-19T08:39:58;78145.94;;;-145.45;65.16
70011;BME280;59543;37.950;-122.338;2023-11-19T08:42:25;78172.66;;;-145.45;65.92
70011;BME280;59543;37.950;-122.338;2023-11-19T08:44:51;78189.09;;;-145.45;66.34
70011;BME280;59543;37.950;-122.338;2023-11-19T08:47:20;78189.09;;;-145.45;66.22
70011;BME280;59543;37.950;-122.338;2023-11-19T08:49:53;78205.53;;;-145.45;66.75
70011;BME280;59543;37.950;-122.338;2023-11-19T08:52:20;78215.81;;;-145.45;66.73
70011;BME280;59543;37.950;-122.338;2023-11-19T08:54:46;78228.16;;;-145.45;66.99
70011;BME280;59543;37.950;-122.338;2023-11-19T08:57:12;78238.41;;;-145.45;67.61
70011;BME280;59543;37.950;-122.338;2023-11-19T08:59:39;78254.84;;;-145.45;68.19
70011;BME280;59543;37.950;-122.338;2023-11-19T09:02:05;78283.63;;;-145.45;68.94
70011;BME280;59543;37.950;-122.338;2023-11-19T09:04:32;78269.25;;;-145.45;68.77
70011;BME280;59543;37.950;-122.338;2023-11-19T09:06:59;78271.28;;;-145.45;68.92
70011;BME280;59543;37.950;-122.338;2023-11-19T09:09:25;78267.19;;;-145.45;68.44
70011;BME280;59543;37.950;-122.338;2023-11-19T09:11:51;78287.72;;;-145.45;68.52
70011;BME280;59543;37.950;-122.338;2023-11-19T09:14:17;78295.94;;;-145.45;69.06
70011;BME280;59543;37.950;-122.338;2023-11-19T09:16:44;78320.59;;;-145.45;69.36
70011;BME280;59543;37.950;-122.338;2023-11-19T09:19:10;78337.06;;;-145.45;70.15
70011;BME280;59543;37.950;-122.338;2023-11-19T09:21:36;78347.31;;;-145.45;70.11
70011;BME280;59543;37.950;-122.338;2023-11-19T09:24:05;78353.50;;;-145.45;70.78
70011;BME280;59543;37.950;-122.338;2023-11-19T09:26:32;78345.25;;;-145.45;70.42
70011;BME280;59543;37.950;-122.338;2023-11-19T09:28:59;78365.81;;;-145.45;71.40
70011;BME280;59543;37.950;-122.338;2023-11-19T09:31:25;78357.59;;;-145.45;71.12
70011;BME280;59543;37.950;-122.338;2023-11-19T09:33:51;78361.72;;;-145.45;71.47
70011;BME280;59543;37.950;-122.338;2023-11-19T09:36:18;78415.13;;;-145.45;73.69
70011;BME280;59543;37.950;-122.338;2023-11-19T09:38:45;78431.56;;;-145.45;73.74
70011;BME280;59543;37.950;-122.338;2023-11-19T09:41:11;78417.19;;;-145.45;73.81
70011;BME280;59543;37.950;-122.338;2023-11-19T09:43:39;78439.78;;;-145.45;74.22
70011;BME280;59543;37.950;-122.338;2023-11-19T09:46:09;78445.97;;;-145.45;74.07
70011;BME280;59543;37.950;-122.338;2023-11-19T09:48:38;78460.34;;;-145.45;74.22
70011;BME280;59543;37.950;-122.338;2023-11-19T09:51:07;78472.66;;;-145.45;74.44
70011;BME280;59543;37.950;-122.338;2023-11-19T09:53:36;78470.63;;;-145.45;74.44
70011;BME280;59543;37.950;-122.338;2023-11-19T09:56:04;78487.06;;;-145.45;75.27
70011;BME280;59543;37.950;-122.338;2023-11-19T09:58:34;78476.78;;;-145.45;74.26
70011;BME280;59543;37.950;-122.338;2023-11-19T10:01:01;78480.88;;;-145.45;74.61
70011;BME280;59543;37.950;-122.338;2023-11-19T10:03:36;78476.78;;;-145.45;74.36
70011;BME280;59543;37.950;-122.338;2023-11-19T10:06:10;78505.56;;;-145.45;74.85
70011;BME280;59543;37.950;-122.338;2023-11-19T10:08:40;78503.50;;;-145.45;74.49
70011;BME280;59543;37.950;-122.338;2023-11-19T10:11:07;78505.56;;;-145.45;74.77
70011;BME280;59543;37.950;-122.338;2023-11-19T10:13:37;78501.44;;;-145.45;74.38
70011;BME280;59543;37.950;-122.338;2023-11-19T10:16:12;78522.00;;;-145.45;75.07
70011;BME280;59543;37.950;-122.338;2023-11-19T10:18:49;78546.66;;;-145.45;76.15
70011;BME280;59543;37.950;-122.338;2023-11-19T10:21:19;78579.53;;;-145.45;77.02
70011;BME280;59543;37.950;-122.338;2023-11-19T10:23:53;78554.88;;;-145.45;76.52
70011;BME280;59543;37.950;-122.338;2023-11-19T10:26:20;78567.19;;;-145.45;76.37
70011;BME280;59543;37.950;-122.338;2023-11-19T10:28:47;78579.53;;;-145.45;77.08
70011;BME280;59543;37.950;-122.338;2023-11-19T10:31:14;78583.63;;;-145.45;76.92
70011;BME280;59543;37.950;-122.338;2023-11-19T10:33:41;78563.09;;;-145.45;77.00
70011;BME280;59543;37.950;-122.338;2023-11-19T10:36:09;78567.19;;;-145.45;75.62
70011;BME280;59543;37.950;-122.338;2023-11-19T10:38:35;78581.59;;;-145.45;75.25
70011;BME280;59543;37.950;-122.338;2023-11-19T10:41:02;78600.06;;;-145.45;75.89
70011;BME280;59543;37.950;-122.338;2023-11-19T10:43:28;78600.06;;;-145.45;75.67
70011;BME280;59543;37.950;-122.338;2023-11-19T10:46:12;78620.63;;;-145.45;76.52
70011;BME280;59543;37.950;-122.338;2023-11-19T10:48:39;78635.00;;;-145.45;76.23
70011;BME280;59543;37.950;-122.338;2023-11-19T10:51:07;78645.28;;;-145.45;76.47
70011;BME280;59543;37.950;-122.338;2023-11-19T10:53:38;78649.41;;;-145.45;76.44
70011;BME280;59543;37.950;-122.338;2023-11-19T10:56:11;78649.41;;;-145.45;76.75
70011;BME280;59543;37.950;-122.338;2023-11-19T10:58:43;78643.22;;;-145.45;76.85
70011;BME280;59543;37.950;-122.338;2023-11-19T11:01:19;78641.19;;;-145.45;77.07
70011;BME280;59543;37.950;-122.338;2023-11-19T11:03:51;78647.34;;;-145.45;77.50
70011;BME280;59543;37.950;-122.338;2023-11-19T11:06:20;78630.91;;;-145.45;77.39
70011;BME280;59543;37.950;-122.338;2023-11-19T11:08:48;78630.91;;;-145.45;77.20
70011;BME280;59543;37.950;-122.338;2023-11-19T11:11:16;78647.34;;;-145.45;77.34
70011;BME280;59543;37.950;-122.338;2023-11-19T11:13:50;78665.84;;;-145.45;77.69
70011;BME280;59543;37.950;-122.338;2023-11-19T11:16:20;78682.28;;;-145.45;77.58
70011;BME280;59543;37.950;-122.338;2023-11-19T11:18:49;78688.44;;;-145.45;77.37
70011;BME280;59543;37.950;-122.338;2023-11-19T11:21:17;78674.06;;;-145.45;77.37
70011;BME280;59543;37.950;-122.338;2023-11-19T11:24:10;78682.28;;;-145.45;77.54
70011;BME280;59543;37.950;-122.338;2023-11-19T11:32:10;78704.88;;;-145.45;78.37
70011;BME280;59543;37.950;-122.338;2023-11-19T11:37:50;78702.81;;;-145.45;78.41
70011;BME280;59543;37.950;-122.338;2023-11-19T11:40:19;78721.31;;;-145.45;78.57
70011;BME280;59543;37.950;-122.338;2023-11-19T11:42:45;78723.38;;;-145.45;78.87
70011;BME280;59543;37.950;-122.338;2023-11-19T11:45:13;78711.03;;;-145.45;77.72
70011;BME280;59543;37.950;-122.338;2023-11-19T11:50:16;78721.31;;;-145.45;77.45
70011;BME280;59543;37.950;-122.338;2023-11-19T11:55:33;78727.50;;;-145.45;77.08
70011;BME280;59543;37.950;-122.338;2023-11-19T11:58:00;78739.81;;;-145.45;78.17
70011;BME280;59543;37.950;-122.338;2023-11-19T12:02:56;78754.22;;;-145.45;78.48
70011;BME280;59543;37.950;-122.338;2023-11-19T12:05:23;78776.81;;;-145.45;79.30
70011;BME280;59543;37.950;-122.338;2023-11-19T12:08:18;78774.75;;;-145.45;79.37
70011;BME280;59543;37.950;-122.338;2023-11-19T12:13:15;78760.38;;;-145.45;78.16
70011;BME280;59543;37.950;-122.338;2023-11-19T12:18:30;78772.69;;;-145.45;77.46
70011;BME280;59543;37.950;-122.338;2023-11-19T12:21:00;78791.19;;;-145.45;77.66
70011;BME280;59543;37.950;-122.338;2023-11-19T12:23:28;78789.13;;;-145.45;77.06
70011;BME280;59543;37.950;-122.338;2023-11-19T12:25:55;78789.13;;;-145.45;77.60
70011;BME280;59543;37.950;-122.338;2023-11-19T12:28:21;78789.13;;;-145.45;76.88
70011;BME280;59543;37.950;-122.338;2023-11-19T12:30:50;78809.69;;;-145.45;77.02
70011;BME280;59543;37.950;-122.338;2023-11-19T12:33:17;78817.91;;;-145.45;77.70
70011;BME280;59543;37.950;-122.338;2023-11-19T12:35:47;78840.53;;;-145.45;78.29
70011;BME280;59543;37.950;-122.338;2023-11-19T12:38:24;78830.25;;;-145.45;78.12